Relevés horaires Schaffen (Belgique)


Relevés horaires à Schaffen - Vendredi 02 Nov. 2018
Heure UTC1 Température [°C] Vent [km/h] Hum. [%] Pres.4 [hPa] Visi. [Km] Nébu. [octa] Préc.5 [mm] Cond.
2m. Res. Ros. Dir.2 Vit. Moy. Raf.3
23:00 2.5 2.5 1.1 OSO 3.7 -- 3.7 90 1030.4(0.8/3h) 19 -- -- --
22:00 3.9 3.9 1.9 NNO 1.9 -- 3.7 87 1030.4(1.2/3h) 20 -- -- --
21:00 5.1 5.1 2.4 SSO 3.7 -- 7.4 83 1029.9(1.5/3h) 20 -- -- --
20:00 3.4 3.4 2.1 NNO 1.9 -- 5.6 91 1029.5(2.0/3h) 19 -- -- --
19:00 6.5 6.5 1.8 O 3.7 -- 7.4 72 1029(2.3/3h) 20 -- -- --
18:00 7.5 7.5 1.7 O 3.7 -- 13.0 67 1028.4(2.3/3h) 20 -- -- --
17:00 7.8 7.8 1.5 O 3.7 -- 5.6 64 1027.2(2.2/3h) 20 -- -- --
16:00 9.2 9.2 1.7 NNO 1.9 -- 11.1 59 1026.5(2.4/3h) 20 -- -- --
15:00 10.7 10 0.5 O 7.4 -- 13.0 49 1025.9(2.0/3h) 20 -- -- --
14:00 11.1 11.1 1.1 O 3.7 -- 13.0 50 1025(1.4/3h) 20 -- -- --
13:00 11.0 10.7 3.1 ONO 5.6 -- 11.1 58 1024(1.2/3h) 20 -- -- --
12:00 10.2 9.8 3.6 O 5.6 -- 11.1 64 1023.8(1.4/3h) 20 -- -- --
11:00 10.3 9.9 4.2 OSO 5.6 -- 9.3 66 1023.5(1.9/3h) 20 -- -- --
10:00 9.9 9.5 4.8 O 5.6 -- 9.3 71 1022.8(2.5/3h) 20 -- -- --
09:00 8.6 8.6 4.8 O 3.7 -- 11.1 77 1022.3(3.1/3h) 17 -- -- --
08:00 6.8 6.8 4.5 SO 3.7 -- 7.4 85 1021.6(3.4/3h) 15 -- -- --
07:00 5.9 5.9 4.7 SO 3.7 -- 7.4 92 1020.3(3.3/3h) 10 -- -- --
06:00 6.3 6.3 5.2 SO 3.7 -- 14.8 93 1019.2(3.5/3h) 9 -- 0.3/12h
NA
05:00 6.9 6.9 5.8 SO 3.7 -- 9.3 93 1018.1(3.4/3h) 9 -- -- --
04:00 7.6 6.8 6.5 SO 5.6 -- 13.0 93 1016.8(3.1/3h) 11 -- -- --
03:00 9.0 8 7.1 OSO 7.4 -- 14.8 88 1015.6(3.0/3h) 14 -- -- NA
02:00 9.6 8.7 8.0 OSO 7.4 -- 13.0 90 1014.6(2.8/3h) 11 -- -- NA
01:00 9.8 8.9 7.9 SO 7.4 -- 14.8 88 1013.7(2.4/3h) 19 -- -- --
00:00 9.9 9 8.1 SSO 7.4 -- 16.7 89 1012.5(1.7/3h) 20 -- 0.3/6h
NA

1 Coordinated Universal Time. Actuellement il est 01:00 locale et 00:00 UTC.

2 Le vent souffle depuis la direction indiquée vers la direction oposée.

3 Les rafales max. sont disponible 40 min après l'heure du relevé.

4 Pour les stations d'altitude (plus de 600m) le géopotentiel du niveau le plus proche de la pression obligatoire est indiqué.

5 Les stations disposant d'un diffuseur peuvent indiquer "trace". Cela signifie que des précipitations ont touchés le sol mais que la quantité est inférieure à 0.1 mm.

Récapitulatif de la journée
Température [°C] Vent [km/h] Ensoleillement4 [h] Precipitations totale5 [mm] Pression [Hpa]
Min1 Max.2 Moy.3 Max. Min Max.
6.2 11.3 0 16.7 0 h 0 min 0 1012.5 1030.4

1 Température minimale relevée entre 18:00 UTC la veille et 18:00 UTC le jour donné.

2 Température maximale relevée entre 06:00 UTC le jour donné et 06:00 UTC le lendemain.

3 Vent moyen de la journée basé sur les relevés horaires.

4 Ensoleillement en heures relevé entre 06:00 UTC la veille et 06:00 UTC le jour donné.

5 Précipitations totales tombées entre 06:00 UTC la jour donné et 06:00 UTC le lendemain.

Graphiques horaires